sensor_id;sensor_type;location;lat;lon;timestamp;temperature;humidity
21590;DHT22;10957;50.968;6.828;2023-07-22T03:30:52;12.40;99.90
21590;DHT22;10957;50.968;6.828;2023-07-22T03:35:54;12.20;99.90
21590;DHT22;10957;50.968;6.828;2023-07-22T03:40:55;12.40;99.90
21590;DHT22;10957;50.968;6.828;2023-07-22T03:45:57;12.10;99.90
21590;DHT22;10957;50.968;6.828;2023-07-22T03:50:58;11.90;99.90
21590;DHT22;10957;50.968;6.828;2023-07-22T03:55:59;12.10;99.90
21590;DHT22;10957;50.968;6.828;2023-07-22T04:01:01;12.00;99.90
21590;DHT22;10957;50.968;6.828;2023-07-22T04:06:02;12.10;99.90
21590;DHT22;10957;50.968;6.828;2023-07-22T04:11:03;12.30;99.90
21590;DHT22;10957;50.968;6.828;2023-07-22T04:16:05;12.30;99.90
21590;DHT22;10957;50.968;6.828;2023-07-22T04:21:06;12.40;99.90
21590;DHT22;10957;50.968;6.828;2023-07-22T04:26:08;12.60;99.90
21590;DHT22;10957;50.968;6.828;2023-07-22T04:31:10;12.50;99.90
21590;DHT22;10957;50.968;6.828;2023-07-22T04:36:11;12.70;99.90
21590;DHT22;10957;50.968;6.828;2023-07-22T04:41:13;13.00;99.90
21590;DHT22;10957;50.968;6.828;2023-07-22T04:46:14;12.70;99.90
21590;DHT22;10957;50.968;6.828;2023-07-22T04:51:16;12.80;99.90
21590;DHT22;10957;50.968;6.828;2023-07-22T04:56:17;12.90;99.90
21590;DHT22;10957;50.968;6.828;2023-07-22T05:01:18;13.00;99.90
21590;DHT22;10957;50.968;6.828;2023-07-22T05:06:20;13.10;99.90
21590;DHT22;10957;50.968;6.828;2023-07-22T05:11:21;13.20;99.90
21590;DHT22;10957;50.968;6.828;2023-07-22T05:16:24;13.30;99.90
21590;DHT22;10957;50.968;6.828;2023-07-22T05:21:25;13.50;99.90
21590;DHT22;10957;50.968;6.828;2023-07-22T05:26:26;13.50;99.90
21590;DHT22;10957;50.968;6.828;2023-07-22T05:31:29;13.50;99.90
21590;DHT22;10957;50.968;6.828;2023-07-22T05:36:30;13.80;99.90
21590;DHT22;10957;50.968;6.828;2023-07-22T05:41:35;13.70;99.90
21590;DHT22;10957;50.968;6.828;2023-07-22T05:46:36;14.20;99.90
21590;DHT22;10957;50.968;6.828;2023-07-22T05:51:39;14.30;99.90
21590;DHT22;10957;50.968;6.828;2023-07-22T05:56:40;14.60;99.90
21590;DHT22;10957;50.968;6.828;2023-07-22T06:01:42;14.80;99.90
21590;DHT22;10957;50.968;6.828;2023-07-22T06:06:43;15.00;99.90
21590;DHT22;10957;50.968;6.828;2023-07-22T06:11:45;15.20;99.90
21590;DHT22;10957;50.968;6.828;2023-07-22T06:16:46;15.30;99.90
21590;DHT22;10957;50.968;6.828;2023-07-22T06:21:47;15.60;99.90
21590;DHT22;10957;50.968;6.828;2023-07-22T06:26:48;15.80;99.90
21590;DHT22;10957;50.968;6.828;2023-07-22T06:31:50;15.80;99.90
21590;DHT22;10957;50.968;6.828;2023-07-22T06:36:51;16.40;99.90
21590;DHT22;10957;50.968;6.828;2023-07-22T06:41:52;16.80;99.90
21590;DHT22;10957;50.968;6.828;2023-07-22T06:46:53;16.60;92.40
21590;DHT22;10957;50.968;6.828;2023-07-22T06:51:55;17.10;99.40
21590;DHT22;10957;50.968;6.828;2023-07-22T06:56:56;17.10;84.40
21590;DHT22;10957;50.968;6.828;2023-07-22T07:01:57;17.60;71.00
21590;DHT22;10957;50.968;6.828;2023-07-22T07:06:59;17.30;45.90
21590;DHT22;10957;50.968;6.828;2023-07-22T07:12:00;17.30;37.30
21590;DHT22;10957;50.968;6.828;2023-07-22T07:17:02;17.40;71.40
21590;DHT22;10957;50.968;6.828;2023-07-22T07:22:03;17.30;70.30
21590;DHT22;10957;50.968;6.828;2023-07-22T07:27:05;17.20;51.20
21590;DHT22;10957;50.968;6.828;2023-07-22T07:32:06;17.20;50.20
21590;DHT22;10957;50.968;6.828;2023-07-22T07:37:08;17.40;57.90
21590;DHT22;10957;50.968;6.828;2023-07-22T07:42:09;17.70;89.50
21590;DHT22;10957;50.968;6.828;2023-07-22T07:47:10;18.10;72.70
21590;DHT22;10957;50.968;6.828;2023-07-22T07:52:12;18.30;52.10
21590;DHT22;10957;50.968;6.828;2023-07-22T07:57:13;18.90;54.50
21590;DHT22;10957;50.968;6.828;2023-07-22T08:02:14;19.20;48.60
21590;DHT22;10957;50.968;6.828;2023-07-22T08:07:16;19.10;17.50
21590;DHT22;10957;50.968;6.828;2023-07-22T08:12:18;19.60;21.00
21590;DHT22;10957;50.968;6.828;2023-07-22T08:17:19;19.70;1.00
21590;DHT22;10957;50.968;6.828;2023-07-22T08:22:21;20.10;1.00
21590;DHT22;10957;50.968;6.828;2023-07-22T08:27:22;20.80;1.00
21590;DHT22;10957;50.968;6.828;2023-07-22T08:32:25;21.10;1.00
21590;DHT22;10957;50.968;6.828;2023-07-22T08:37:26;21.70;1.00
21590;DHT22;10957;50.968;6.828;2023-07-22T08:42:29;21.60;1.00
21590;DHT22;10957;50.968;6.828;2023-07-22T08:47:33;22.40;1.00
21590;DHT22;10957;50.968;6.828;2023-07-22T08:52:35;22.40;1.00
21590;DHT22;10957;50.968;6.828;2023-07-22T08:57:37;21.90;1.00
21590;DHT22;10957;50.968;6.828;2023-07-22T09:02:40;22.80;1.00
21590;DHT22;10957;50.968;6.828;2023-07-22T09:07:42;22.30;1.00
21590;DHT22;10957;50.968;6.828;2023-07-22T09:12:43;21.90;1.00
21590;DHT22;10957;50.968;6.828;2023-07-22T09:17:46;22.00;1.00
21590;DHT22;10957;50.968;6.828;2023-07-22T09:22:49;22.90;1.00
21590;DHT22;10957;50.968;6.828;2023-07-22T09:27:53;23.30;1.00
21590;DHT22;10957;50.968;6.828;2023-07-22T10:07:04;23.20;1.00
21590;DHT22;10957;50.968;6.828;2023-07-22T10:12:07;23.30;1.00
21590;DHT22;10957;50.968;6.828;2023-07-22T10:17:09;23.20;1.00
21590;DHT22;10957;50.968;6.828;2023-07-22T10:22:11;22.90;1.00
21590;DHT22;10957;50.968;6.828;2023-07-22T10:27:14;23.00;1.00
21590;DHT22;10957;50.968;6.828;2023-07-22T10:32:15;22.30;1.00
21590;DHT22;10957;50.968;6.828;2023-07-22T10:37:21;22.20;1.00
21590;DHT22;10957;50.968;6.828;2023-07-22T10:42:31;22.20;1.00
21590;DHT22;10957;50.968;6.828;2023-07-22T10:47:34;22.90;1.00
21590;DHT22;10957;50.968;6.828;2023-07-22T10:52:43;22.70;1.00
21590;DHT22;10957;50.968;6.828;2023-07-22T10:57:53;23.60;1.00
21590;DHT22;10957;50.968;6.828;2023-07-22T11:03:11;23.90;1.00
21590;DHT22;10957;50.968;6.828;2023-07-22T11:08:13;24.20;1.00
21590;DHT22;10957;50.968;6.828;2023-07-22T11:13:15;24.30;1.00
21590;DHT22;10957;50.968;6.828;2023-07-22T11:18:16;23.40;1.00
21590;DHT22;10957;50.968;6.828;2023-07-22T11:23:17;23.70;1.00
21590;DHT22;10957;50.968;6.828;2023-07-22T11:28:19;23.70;1.00
21590;DHT22;10957;50.968;6.828;2023-07-22T11:33:20;23.40;1.00
21590;DHT22;10957;50.968;6.828;2023-07-22T11:38:24;23.50;1.00
21590;DHT22;10957;50.968;6.828;2023-07-22T11:43:25;23.20;1.00
21590;DHT22;10957;50.968;6.828;2023-07-22T11:48:26;23.10;1.00
21590;DHT22;10957;50.968;6.828;2023-07-22T11:53:28;23.20;1.00
21590;DHT22;10957;50.968;6.828;2023-07-22T11:58:30;23.40;1.00
21590;DHT22;10957;50.968;6.828;2023-07-22T12:03:33;23.60;1.00
21590;DHT22;10957;50.968;6.828;2023-07-22T12:08:34;24.20;1.00
21590;DHT22;10957;50.968;6.828;2023-07-22T12:13:37;24.10;1.00
21590;DHT22;10957;50.968;6.828;2023-07-22T12:18:46;24.10;1.00
21590;DHT22;10957;50.968;6.828;2023-07-22T12:23:47;24.10;1.00
21590;DHT22;10957;50.968;6.828;2023-07-22T12:28:49;24.10;1.00
21590;DHT22;10957;50.968;6.828;2023-07-22T12:33:50;24.00;1.00
21590;DHT22;10957;50.968;6.828;2023-07-22T12:38:52;24.40;1.00
21590;DHT22;10957;50.968;6.828;2023-07-22T12:43:53;24.40;1.00
21590;DHT22;10957;50.968;6.828;2023-07-22T12:48:54;24.70;1.00
21590;DHT22;10957;50.968;6.828;2023-07-22T12:53:55;24.90;1.00
21590;DHT22;10957;50.968;6.828;2023-07-22T12:58:57;24.80;1.00
21590;DHT22;10957;50.968;6.828;2023-07-22T13:03:58;24.70;1.00
21590;DHT22;10957;50.968;6.828;2023-07-22T13:09:02;24.60;1.00
21590;DHT22;10957;50.968;6.828;2023-07-22T13:14:18;24.40;1.00
21590;DHT22;10957;50.968;6.828;2023-07-22T13:19:29;24.50;1.00
21590;DHT22;10957;50.968;6.828;2023-07-22T13:24:30;25.20;1.00
21590;DHT22;10957;50.968;6.828;2023-07-22T13:29:31;25.20;1.00
21590;DHT22;10957;50.968;6.828;2023-07-22T13:34:33;25.20;1.00
21590;DHT22;10957;50.968;6.828;2023-07-22T13:39:34;25.40;1.00
21590;DHT22;10957;50.968;6.828;2023-07-22T13:44:35;25.40;1.00
21590;DHT22;10957;50.968;6.828;2023-07-22T13:49:37;24.80;1.00
21590;DHT22;10957;50.968;6.828;2023-07-22T13:54:38;24.90;1.00
21590;DHT22;10957;50.968;6.828;2023-07-22T13:59:39;25.50;1.00
21590;DHT22;10957;50.968;6.828;2023-07-22T14:04:41;25.50;1.00
21590;DHT22;10957;50.968;6.828;2023-07-22T14:09:42;25.20;1.00
21590;DHT22;10957;50.968;6.828;2023-07-22T14:14:43;25.50;1.00
21590;DHT22;10957;50.968;6.828;2023-07-22T14:19:45;25.80;1.00
21590;DHT22;10957;50.968;6.828;2023-07-22T14:24:47;25.60;1.00
21590;DHT22;10957;50.968;6.828;2023-07-22T14:29:48;25.40;1.00
21590;DHT22;10957;50.968;6.828;2023-07-22T14:34:50;25.70;1.00
21590;DHT22;10957;50.968;6.828;2023-07-22T14:39:51;26.20;1.00
21590;DHT22;10957;50.968;6.828;2023-07-22T14:44:53;26.30;1.00
21590;DHT22;10957;50.968;6.828;2023-07-22T14:49:54;25.90;1.00
21590;DHT22;10957;50.968;6.828;2023-07-22T14:54:55;25.60;1.00
21590;DHT22;10957;50.968;6.828;2023-07-22T14:59:56;25.50;1.00
21590;DHT22;10957;50.968;6.828;2023-07-22T15:04:58;25.60;1.00
21590;DHT22;10957;50.968;6.828;2023-07-22T15:10:02;25.60;1.00
21590;DHT22;10957;50.968;6.828;2023-07-22T15:15:12;25.30;1.00
21590;DHT22;10957;50.968;6.828;2023-07-22T15:20:13;25.00;1.00
21590;DHT22;10957;50.968;6.828;2023-07-22T15:25:15;25.30;1.00
21590;DHT22;10957;50.968;6.828;2023-07-22T15:30:16;25.00;1.00
21590;DHT22;10957;50.968;6.828;2023-07-22T15:35:18;25.00;1.00
21590;DHT22;10957;50.968;6.828;2023-07-22T15:40:19;24.70;1.00
21590;DHT22;10957;50.968;6.828;2023-07-22T15:45:21;24.70;1.00
21590;DHT22;10957;50.968;6.828;2023-07-22T15:50:23;24.70;1.00
21590;DHT22;10957;50.968;6.828;2023-07-22T15:55:24;24.60;1.00
21590;DHT22;10957;50.968;6.828;2023-07-22T16:00:26;24.30;1.00
21590;DHT22;10957;50.968;6.828;2023-07-22T16:05:27;24.20;1.00
21590;DHT22;10957;50.968;6.828;2023-07-22T16:10:28;24.30;1.00
21590;DHT22;10957;50.968;6.828;2023-07-22T16:15:32;24.30;1.00
21590;DHT22;10957;50.968;6.828;2023-07-22T16:20:33;24.50;1.00
21590;DHT22;10957;50.968;6.828;2023-07-22T16:25:34;24.50;1.00
21590;DHT22;10957;50.968;6.828;2023-07-22T16:30:36;24.50;1.00
21590;DHT22;10957;50.968;6.828;2023-07-22T16:35:38;24.30;1.00
21590;DHT22;10957;50.968;6.828;2023-07-22T16:40:39;24.10;1.00
21590;DHT22;10957;50.968;6.828;2023-07-22T16:45:40;23.70;1.00
21590;DHT22;10957;50.968;6.828;2023-07-22T16:50:42;23.60;1.00
21590;DHT22;10957;50.968;6.828;2023-07-22T16:55:43;23.40;1.00
21590;DHT22;10957;50.968;6.828;2023-07-22T17:00:44;23.40;1.00
21590;DHT22;10957;50.968;6.828;2023-07-22T17:05:48;23.30;1.00
21590;DHT22;10957;50.968;6.828;2023-07-22T17:10:50;23.20;1.00
21590;DHT22;10957;50.968;6.828;2023-07-22T17:15:51;23.20;1.00
21590;DHT22;10957;50.968;6.828;2023-07-22T17:20:53;23.10;1.00
21590;DHT22;10957;50.968;6.828;2023-07-22T17:25:55;22.90;1.00
21590;DHT22;10957;50.968;6.828;2023-07-22T17:31:10;22.80;1.00
21590;DHT22;10957;50.968;6.828;2023-07-22T17:36:15;22.60;1.00
21590;DHT22;10957;50.968;6.828;2023-07-22T17:41:17;22.70;1.00
21590;DHT22;10957;50.968;6.828;2023-07-22T17:46:18;22.60;1.00
21590;DHT22;10957;50.968;6.828;2023-07-22T17:51:19;22.50;1.00
21590;DHT22;10957;50.968;6.828;2023-07-22T17:56:21;22.40;1.00
21590;DHT22;10957;50.968;6.828;2023-07-22T18:01:22;22.30;1.00
21590;DHT22;10957;50.968;6.828;2023-07-22T18:06:24;22.20;1.00
21590;DHT22;10957;50.968;6.828;2023-07-22T18:11:26;22.20;1.00
21590;DHT22;10957;50.968;6.828;2023-07-22T18:16:27;22.10;1.00
21590;DHT22;10957;50.968;6.828;2023-07-22T18:21:28;22.20;1.00
21590;DHT22;10957;50.968;6.828;2023-07-22T18:26:32;22.10;1.00
21590;DHT22;10957;50.968;6.828;2023-07-22T18:31:34;22.00;1.00
21590;DHT22;10957;50.968;6.828;2023-07-22T18:36:35;21.90;1.00
21590;DHT22;10957;50.968;6.828;2023-07-22T18:41:37;21.70;1.00
21590;DHT22;10957;50.968;6.828;2023-07-22T18:46:38;21.60;1.00
21590;DHT22;10957;50.968;6.828;2023-07-22T18:51:40;21.40;1.00
21590;DHT22;10957;50.968;6.828;2023-07-22T18:56:41;21.30;1.00
21590;DHT22;10957;50.968;6.828;2023-07-22T19:01:42;21.20;1.00
21590;DHT22;10957;50.968;6.828;2023-07-22T19:06:45;21.00;1.00
21590;DHT22;10957;50.968;6.828;2023-07-22T19:11:47;20.90;1.00
21590;DHT22;10957;50.968;6.828;2023-07-22T19:16:51;20.70;1.00
21590;DHT22;10957;50.968;6.828;2023-07-22T19:21:53;20.60;1.00
21590;DHT22;10957;50.968;6.828;2023-07-22T19:26:57;20.60;1.00
21590;DHT22;10957;50.968;6.828;2023-07-22T19:31:58;20.50;1.00
21590;DHT22;10957;50.968;6.828;2023-07-22T19:37:00;20.40;1.00
21590;DHT22;10957;50.968;6.828;2023-07-22T19:42:02;20.30;1.00
21590;DHT22;10957;50.968;6.828;2023-07-22T19:47:03;20.20;1.00
21590;DHT22;10957;50.968;6.828;2023-07-22T19:52:06;20.10;1.00
21590;DHT22;10957;50.968;6.828;2023-07-22T19:57:09;20.00;1.00
21590;DHT22;10957;50.968;6.828;2023-07-22T20:02:10;19.90;1.00
21590;DHT22;10957;50.968;6.828;2023-07-22T20:07:12;19.70;1.00
21590;DHT22;10957;50.968;6.828;2023-07-22T20:12:13;19.60;1.00
21590;DHT22;10957;50.968;6.828;2023-07-22T20:17:14;19.50;1.00
21590;DHT22;10957;50.968;6.828;2023-07-22T20:22:15;19.40;1.00
21590;DHT22;10957;50.968;6.828;2023-07-22T20:27:16;19.20;1.00
21590;DHT22;10957;50.968;6.828;2023-07-22T20:32:18;19.20;1.00
21590;DHT22;10957;50.968;6.828;2023-07-22T20:37:19;19.00;1.00
21590;DHT22;10957;50.968;6.828;2023-07-22T20:42:20;19.10;1.00
21590;DHT22;10957;50.968;6.828;2023-07-22T20:47:21;19.00;1.00
21590;DHT22;10957;50.968;6.828;2023-07-22T20:52:23;19.00;1.00
21590;DHT22;10957;50.968;6.828;2023-07-22T20:57:24;19.00;1.00
21590;DHT22;10957;50.968;6.828;2023-07-22T21:02:27;19.00;1.00
21590;DHT22;10957;50.968;6.828;2023-07-22T21:07:28;18.90;1.00
21590;DHT22;10957;50.968;6.828;2023-07-22T21:12:30;19.00;1.00
21590;DHT22;10957;50.968;6.828;2023-07-22T21:17:33;18.90;1.00
21590;DHT22;10957;50.968;6.828;2023-07-22T21:22:34;18.90;1.00
21590;DHT22;10957;50.968;6.828;2023-07-22T21:27:35;18.80;1.00
21590;DHT22;10957;50.968;6.828;2023-07-22T21:32:36;18.90;1.00
21590;DHT22;10957;50.968;6.828;2023-07-22T21:37:38;18.80;1.00
21590;DHT22;10957;50.968;6.828;2023-07-22T21:42:39;18.70;1.00
21590;DHT22;10957;50.968;6.828;2023-07-22T21:47:40;18.70;1.00
21590;DHT22;10957;50.968;6.828;2023-07-22T21:52:41;18.70;1.00
21590;DHT22;10957;50.968;6.828;2023-07-22T21:57:46;18.70;1.00
21590;DHT22;10957;50.968;6.828;2023-07-22T22:02:47;18.70;1.00
21590;DHT22;10957;50.968;6.828;2023-07-22T22:07:49;18.70;1.00
21590;DHT22;10957;50.968;6.828;2023-07-22T22:12:50;18.70;1.00
21590;DHT22;10957;50.968;6.828;2023-07-22T22:17:51;18.70;1.00
21590;DHT22;10957;50.968;6.828;2023-07-22T22:22:52;18.70;1.00
21590;DHT22;10957;50.968;6.828;2023-07-22T22:27:53;18.60;1.00
21590;DHT22;10957;50.968;6.828;2023-07-22T22:32:55;18.60;1.00
21590;DHT22;10957;50.968;6.828;2023-07-22T22:37:56;18.60;1.00
21590;DHT22;10957;50.968;6.828;2023-07-22T22:42:57;18.50;1.00
21590;DHT22;10957;50.968;6.828;2023-07-22T22:47:59;18.50;1.00
21590;DHT22;10957;50.968;6.828;2023-07-22T22:53:00;18.40;1.00
21590;DHT22;10957;50.968;6.828;2023-07-22T22:58:01;18.30;1.00
21590;DHT22;10957;50.968;6.828;2023-07-22T23:03:03;18.30;1.00
21590;DHT22;10957;50.968;6.828;2023-07-22T23:08:06;18.10;1.00
21590;DHT22;10957;50.968;6.828;2023-07-22T23:13:07;18.00;1.00
21590;DHT22;10957;50.968;6.828;2023-07-22T23:18:08;18.00;1.00
21590;DHT22;10957;50.968;6.828;2023-07-22T23:23:10;18.00;1.00
21590;DHT22;10957;50.968;6.828;2023-07-22T23:28:11;18.00;1.00
21590;DHT22;10957;50.968;6.828;2023-07-22T23:33:15;18.00;1.00
21590;DHT22;10957;50.968;6.828;2023-07-22T23:38:16;18.00;1.00
21590;DHT22;10957;50.968;6.828;2023-07-22T23:43:17;17.90;1.00
21590;DHT22;10957;50.968;6.828;2023-07-22T23:48:22;17.80;1.00
21590;DHT22;10957;50.968;6.828;2023-07-22T23:53:27;17.70;1.00
21590;DHT22;10957;50.968;6.828;2023-07-22T23:58:28;17.50;25.50
